Flight Track Log - Related Links

Times and Time Zones

All times are in EST time to prevent confusion due to time zone crossing. See the KAP927 flight status page for this flight to view local times or setup timezone preferences in your user account.

Time Position Orientation Groundspeed Altitude Reporting Facility
EST Latitude Longitude Course Direction KTS MPH feet Rate Location/Type
Thu 06:43:43 PM 42.7628 -73.8567 350° North 101 116 1,800  Level Boston Center
Thu 06:44:07 PM 42.7708 -73.8628 331° Northwest 102 117 2,100 700 Climbing Boston Center
Thu 06:44:43 PM 42.7867 -73.8792 323° Northwest 103 119 2,500 600 Climbing Boston Center
Thu 06:45:07 PM 42.7939 -73.8883 317° Northwest 104 120 2,700 590 Climbing Boston Center
Thu 06:45:44 PM 42.8078 -73.9039 321° Northwest 106 122 3,100 590 Climbing Boston Center
Thu 06:46:08 PM 42.8167 -73.9136 321° Northwest 104 120 3,300 700 Climbing Boston Center
Thu 06:46:44 PM 42.8306 -73.9322 316° Northwest 111 128 3,800 762 Climbing Boston Center
Thu 06:47:11 PM 42.8414 -73.9378 339° North 107 123 4,100 774 Climbing Boston Center
Thu 06:47:46 PM 42.8619 -73.9369 North 117 135 4,600 814 Climbing Boston Center
Thu 06:48:10 PM 42.8764 -73.9350 North 114 131 4,900 800 Climbing Boston Center
Thu 06:48:46 PM 42.8942 -73.9364 357° North 117 135 5,400 762 Climbing Boston Center
Thu 06:49:00 PM 42.9841 -73.9975 350° North  Level Estimated
Thu 06:49:13 PM 42.9081 -73.9342 North 114 131 5,700  Level Boston Center
Thu 06:49:47 PM 42.9267 -73.9356 357° North 115 132 6,100 689 Climbing Boston Center
Thu 06:50:14 PM 42.9406 -73.9353 North 115 132 6,400 716 Climbing Boston Center
Thu 06:50:54 PM 42.9636 -73.9336 North 118 136 6,900 492 Climbing Boston Center
Thu 06:51:15 PM 42.9747 -73.9342 358° North 117 135 6,900 100 Level Boston Center
Thu 06:51:54 PM 43.0019 -73.9350 359° North 134 154 7,000 98 Climbing Boston Center
Thu 06:52:16 PM 43.0136 -73.9328 North 138 159 7,000  Level Boston Center
Thu 06:52:55 PM 43.0453 -73.9322 North 157 181 7,000  Level Boston Center
Thu 06:53:17 PM 43.0611 -73.9311 North 155 178 7,000  Level Boston Center
Thu 06:53:56 PM 43.0883 -73.9325 358° North 164 189 7,000  Level Boston Center
Thu 06:54:20 PM 43.1064 -73.9311 North 159 183 7,000  Level Boston Center
Thu 06:54:51 PM 43.1314 -73.9325 358° North 162 186 7,000  Level Boston Center
Thu 06:55:21 PM 43.1494 -73.9311 North 157 181 7,000  Level Boston Center
Thu 06:56:22 PM 43.1889 -73.9306 North 145 167 7,000  Level Boston Center
Thu 06:57:23 PM 43.2300 -73.9303 360° North 138 159 7,000  Level Boston Center
Thu 06:58:23 PM 43.2692 -73.9281 North 140 161 7,000  Level Boston Center
Thu 06:59:24 PM 43.3092 -73.9347 353° North 143 165 7,000  Level Boston Center
Thu 07:00:28 PM 43.3486 -73.9436 351° North 143 165 7,000  Level Boston Center
Thu 07:01:28 PM 43.3856 -73.9744 329° Northwest 147 169 7,000  Level Boston Center
Thu 07:02:29 PM 43.4139 -74.0081 319° Northwest 138 159 7,000  Level Boston Center
Thu 07:03:30 PM 43.4436 -74.0403 322° Northwest 138 159 7,000  Level Boston Center
Thu 07:04:31 PM 43.4728 -74.0725 321° Northwest 138 159 7,000 49 Level Boston Center
Thu 07:05:32 PM 43.5019 -74.1053 321° Northwest 137 158 7,100 49 Climbing Boston Center
Thu 07:06:33 PM 43.5325 -74.1383 322° Northwest 138 159 7,100  Level Boston Center
Thu 07:07:33 PM 43.5636 -74.1731 321° Northwest 142 163 7,100  Level Boston Center
Thu 07:08:34 PM 43.5953 -74.2086 321° Northwest 142 163 7,100  Level Boston Center
Thu 07:09:38 PM 43.6261 -74.2422 322° Northwest 143 165 7,100  Level Boston Center
Thu 07:10:39 PM 43.6603 -74.2828 319° Northwest 142 163 7,100  Level Boston Center
Thu 07:11:40 PM 43.6897 -74.3156 321° Northwest 141 162 7,100 -49 Level Boston Center
Thu 07:12:41 PM 43.7194 -74.3486 321° Northwest 141 162 7,000 -50 Descending Boston Center
Thu 07:13:40 PM 43.7503 -74.3839 320° Northwest 141 162 7,000  Level Boston Center
Thu 07:14:41 PM 43.7792 -74.4172 320° Northwest 141 162 7,000  Level Boston Center
Thu 07:15:42 PM 43.8097 -74.4506 322° Northwest 141 162 7,000  Level Boston Center
Thu 07:16:45 PM 43.8397 -74.4839 321° Northwest 141 162 7,000  Level Boston Center
Thu 07:17:46 PM 43.8689 -74.5183 320° Northwest 141 162 7,000  Level Boston Center
Thu 07:18:47 PM 43.8989 -74.5528 320° Northwest 141 162 7,000  Level Boston Center
Thu 07:19:48 PM 43.9283 -74.5867 320° Northwest 140 161 7,000  Level Boston Center
Thu 07:20:49 PM 43.9647 -74.6278 321° Northwest 140 161 7,000  Level Boston Center
Thu 07:21:50 PM 43.9961 -74.6628 321° Northwest 140 161 7,000  Level Boston Center
Thu 07:22:51 PM 44.0261 -74.6981 320° Northwest 141 162 7,000  Level Boston Center
Thu 07:23:51 PM 44.0564 -74.7328 321° Northwest 141 162 7,000  Level Boston Center
Thu 07:24:52 PM 44.0858 -74.7683 319° Northwest 141 162 7,000  Level Boston Center
Thu 07:25:55 PM 44.1156 -74.8008 322° Northwest 141 162 7,000  Level Boston Center
Thu 07:26:56 PM 44.1450 -74.8350 320° Northwest 140 161 7,000  Level Boston Center
Thu 07:27:57 PM 44.1736 -74.8686 320° Northwest 138 159 7,000  Level Boston Center
Thu 07:28:58 PM 44.2033 -74.9036 320° Northwest 138 159 7,000 -149 Level Boston Center
Thu 07:29:58 PM 44.2353 -74.9383 322° Northwest 139 160 6,700 -350 Descending Boston Center
Thu 07:30:58 PM 44.2694 -74.9739 323° Northwest 147 169 6,300 -341 Descending Boston Center
Thu 07:32:01 PM 44.3103 -75.0203 321° Northwest 153 176 6,000 -336 Descending Boston Center
Thu 07:33:03 PM 44.3458 -75.0561 324° Northwest 154 177 5,600 -443 Descending Boston Center
Thu 07:34:03 PM 44.3817 -75.0947 322° Northwest 157 181 5,100 -500 Descending Boston Center
Thu 07:35:03 PM 44.4172 -75.1292 325° Northwest 157 181 4,600 -496 Descending Boston Center
Thu 07:36:04 PM 44.4531 -75.1692 321° Northwest 158 182 4,100 -492 Descending Boston Center
Thu 07:37:05 PM 44.4889 -75.2050 325° Northwest 158 182 3,600 -492 Descending Boston Center

Login

Don't have an account? Register now (free) for customized features, flight alerts, and more!